sensor_id;sensor_type;location;lat;lon;timestamp;P1;durP1;ratioP1;P2;durP2;ratioP2
22017;SDS011;11173;51.050;7.108;2022-08-25T00:04:33;0.52;;;0.50;;
22017;SDS011;11173;51.050;7.108;2022-08-25T00:09:54;0.90;;;0.70;;
22017;SDS011;11173;51.050;7.108;2022-08-25T00:15:15;1.95;;;0.85;;
22017;SDS011;11173;51.050;7.108;2022-08-25T00:20:36;1.02;;;0.80;;
22017;SDS011;11173;51.050;7.108;2022-08-25T00:25:56;1.00;;;0.90;;
22017;SDS011;11173;51.050;7.108;2022-08-25T00:31:18;3.53;;;0.93;;
22017;SDS011;11173;51.050;7.108;2022-08-25T00:36:40;1.67;;;0.90;;
22017;SDS011;11173;51.050;7.108;2022-08-25T00:42:02;0.50;;;0.50;;
22017;SDS011;11173;51.050;7.108;2022-08-25T00:47:24;0.75;;;0.60;;
22017;SDS011;11173;51.050;7.108;2022-08-25T00:52:45;0.80;;;0.80;;
22017;SDS011;11173;51.050;7.108;2022-08-25T00:58:13;1.67;;;0.60;;
22017;SDS011;11173;51.050;7.108;2022-08-25T01:03:37;3.80;;;0.80;;
22017;SDS011;11173;51.050;7.108;2022-08-25T01:08:58;0.70;;;0.70;;
22017;SDS011;11173;51.050;7.108;2022-08-25T01:14:19;1.33;;;0.50;;
22017;SDS011;11173;51.050;7.108;2022-08-25T01:19:42;1.00;;;0.70;;
22017;SDS011;11173;51.050;7.108;2022-08-25T01:25:04;1.17;;;0.70;;
22017;SDS011;11173;51.050;7.108;2022-08-25T01:30:36;0.70;;;0.70;;
22017;SDS011;11173;51.050;7.108;2022-08-25T01:35:57;2.13;;;0.88;;
22017;SDS011;11173;51.050;7.108;2022-08-25T01:46:53;0.60;;;0.55;;
22017;SDS011;11173;51.050;7.108;2022-08-25T01:52:15;0.65;;;0.50;;
22017;SDS011;11173;51.050;7.108;2022-08-25T01:57:40;0.65;;;0.60;;
22017;SDS011;11173;51.050;7.108;2022-08-25T02:03:01;2.35;;;0.60;;
22017;SDS011;11173;51.050;7.108;2022-08-25T02:08:22;0.80;;;0.63;;
22017;SDS011;11173;51.050;7.108;2022-08-25T02:13:43;0.75;;;0.50;;
22017;SDS011;11173;51.050;7.108;2022-08-25T02:19:05;0.50;;;0.50;;
22017;SDS011;11173;51.050;7.108;2022-08-25T02:24:28;0.30;;;0.30;;
22017;SDS011;11173;51.050;7.108;2022-08-25T02:29:48;0.20;;;0.20;;
22017;SDS011;11173;51.050;7.108;2022-08-25T02:35:09;0.10;;;0.05;;
22017;SDS011;11173;51.050;7.108;2022-08-25T02:40:30;0.10;;;0.10;;
22017;SDS011;11173;51.050;7.108;2022-08-25T02:45:51;0.38;;;0.20;;
22017;SDS011;11173;51.050;7.108;2022-08-25T02:51:13;0.20;;;0.20;;
22017;SDS011;11173;51.050;7.108;2022-08-25T02:56:34;0.85;;;0.40;;
22017;SDS011;11173;51.050;7.108;2022-08-25T03:01:55;0.98;;;0.75;;
22017;SDS011;11173;51.050;7.108;2022-08-25T03:07:15;1.55;;;1.02;;
22017;SDS011;11173;51.050;7.108;2022-08-25T03:12:37;0.85;;;0.85;;
22017;SDS011;11173;51.050;7.108;2022-08-25T03:18:00;2.40;;;1.00;;
22017;SDS011;11173;51.050;7.108;2022-08-25T03:23:02;1.25;;;0.90;;
22017;SDS011;11173;51.050;7.108;2022-08-25T03:28:03;2.13;;;0.90;;
22017;SDS011;11173;51.050;7.108;2022-08-25T03:33:05;1.45;;;0.90;;
22017;SDS011;11173;51.050;7.108;2022-08-25T03:38:05;1.20;;;1.00;;
22017;SDS011;11173;51.050;7.108;2022-08-25T03:43:06;1.33;;;1.23;;
22017;SDS011;11173;51.050;7.108;2022-08-25T03:48:07;2.67;;;1.17;;
22017;SDS011;11173;51.050;7.108;2022-08-25T03:53:08;1.30;;;1.15;;
22017;SDS011;11173;51.050;7.108;2022-08-25T03:58:08;1.15;;;1.10;;
22017;SDS011;11173;51.050;7.108;2022-08-25T04:03:09;3.42;;;1.10;;
22017;SDS011;11173;51.050;7.108;2022-08-25T04:08:10;1.85;;;1.35;;
22017;SDS011;11173;51.050;7.108;2022-08-25T04:13:10;1.42;;;0.95;;
22017;SDS011;11173;51.050;7.108;2022-08-25T04:18:11;1.30;;;1.20;;
22017;SDS011;11173;51.050;7.108;2022-08-25T04:23:12;1.77;;;1.67;;
22017;SDS011;11173;51.050;7.108;2022-08-25T04:28:12;1.75;;;1.48;;
22017;SDS011;11173;51.050;7.108;2022-08-25T04:33:13;1.57;;;1.10;;
22017;SDS011;11173;51.050;7.108;2022-08-25T04:38:13;1.30;;;1.20;;
22017;SDS011;11173;51.050;7.108;2022-08-25T04:43:14;1.38;;;1.27;;
22017;SDS011;11173;51.050;7.108;2022-08-25T04:48:14;1.20;;;1.10;;
22017;SDS011;11173;51.050;7.108;2022-08-25T04:53:15;1.50;;;1.40;;
22017;SDS011;11173;51.050;7.108;2022-08-25T04:58:15;2.25;;;1.38;;
22017;SDS011;11173;51.050;7.108;2022-08-25T05:03:16;2.50;;;1.67;;
22017;SDS011;11173;51.050;7.108;2022-08-25T05:08:16;1.33;;;1.23;;
22017;SDS011;11173;51.050;7.108;2022-08-25T05:13:16;1.50;;;1.40;;
22017;SDS011;11173;51.050;7.108;2022-08-25T05:18:17;3.83;;;1.50;;
22017;SDS011;11173;51.050;7.108;2022-08-25T05:23:19;2.25;;;1.63;;
22017;SDS011;11173;51.050;7.108;2022-08-25T05:28:21;4.20;;;1.45;;
22017;SDS011;11173;51.050;7.108;2022-08-25T05:33:21;1.90;;;1.80;;
22017;SDS011;11173;51.050;7.108;2022-08-25T05:38:21;1.80;;;1.70;;
22017;SDS011;11173;51.050;7.108;2022-08-25T05:43:22;1.67;;;1.45;;
22017;SDS011;11173;51.050;7.108;2022-08-25T05:48:23;1.50;;;1.40;;
22017;SDS011;11173;51.050;7.108;2022-08-25T05:53:25;1.67;;;1.55;;
22017;SDS011;11173;51.050;7.108;2022-08-25T05:58:27;1.20;;;1.10;;
22017;SDS011;11173;51.050;7.108;2022-08-25T06:03:28;1.25;;;1.15;;
22017;SDS011;11173;51.050;7.108;2022-08-25T06:08:28;1.65;;;1.50;;
22017;SDS011;11173;51.050;7.108;2022-08-25T06:13:32;2.20;;;1.60;;
22017;SDS011;11173;51.050;7.108;2022-08-25T06:18:33;2.92;;;1.65;;
22017;SDS011;11173;51.050;7.108;2022-08-25T06:23:33;2.00;;;1.90;;
22017;SDS011;11173;51.050;7.108;2022-08-25T06:28:35;1.73;;;1.63;;
22017;SDS011;11173;51.050;7.108;2022-08-25T06:33:35;2.17;;;1.10;;
22017;SDS011;11173;51.050;7.108;2022-08-25T06:38:36;1.10;;;1.00;;
22017;SDS011;11173;51.050;7.108;2022-08-25T06:43:37;1.95;;;1.13;;
22017;SDS011;11173;51.050;7.108;2022-08-25T06:48:39;1.33;;;1.23;;
22017;SDS011;11173;51.050;7.108;2022-08-25T06:53:40;1.40;;;1.30;;
22017;SDS011;11173;51.050;7.108;2022-08-25T06:58:41;1.05;;;1.00;;
22017;SDS011;11173;51.050;7.108;2022-08-25T07:03:43;1.40;;;1.30;;
22017;SDS011;11173;51.050;7.108;2022-08-25T07:08:43;1.20;;;1.10;;
22017;SDS011;11173;51.050;7.108;2022-08-25T07:13:44;0.70;;;0.70;;
22017;SDS011;11173;51.050;7.108;2022-08-25T07:18:45;1.37;;;1.27;;
22017;SDS011;11173;51.050;7.108;2022-08-25T07:23:46;1.42;;;1.33;;
22017;SDS011;11173;51.050;7.108;2022-08-25T07:28:47;0.90;;;0.90;;
22017;SDS011;11173;51.050;7.108;2022-08-25T07:33:47;0.70;;;0.60;;
22017;SDS011;11173;51.050;7.108;2022-08-25T07:39:07;1.33;;;1.23;;
22017;SDS011;11173;51.050;7.108;2022-08-25T07:44:08;0.70;;;0.70;;
22017;SDS011;11173;51.050;7.108;2022-08-25T07:49:10;1.27;;;1.17;;
22017;SDS011;11173;51.050;7.108;2022-08-25T07:54:10;0.70;;;0.70;;
22017;SDS011;11173;51.050;7.108;2022-08-25T07:59:10;0.80;;;0.80;;
22017;SDS011;11173;51.050;7.108;2022-08-25T08:04:11;0.70;;;0.70;;
22017;SDS011;11173;51.050;7.108;2022-08-25T08:09:11;0.80;;;0.80;;
22017;SDS011;11173;51.050;7.108;2022-08-25T08:14:12;1.40;;;1.30;;
22017;SDS011;11173;51.050;7.108;2022-08-25T08:19:13;1.00;;;1.00;;
22017;SDS011;11173;51.050;7.108;2022-08-25T08:24:13;0.70;;;0.70;;
22017;SDS011;11173;51.050;7.108;2022-08-25T08:29:14;1.08;;;1.02;;
22017;SDS011;11173;51.050;7.108;2022-08-25T08:34:15;0.80;;;0.80;;
22017;SDS011;11173;51.050;7.108;2022-08-25T08:39:16;0.95;;;0.95;;
22017;SDS011;11173;51.050;7.108;2022-08-25T08:55:25;1.05;;;1.00;;
22017;SDS011;11173;51.050;7.108;2022-08-25T09:00:31;0.70;;;0.70;;
22017;SDS011;11173;51.050;7.108;2022-08-25T09:05:45;1.23;;;1.23;;
22017;SDS011;11173;51.050;7.108;2022-08-25T09:32:15;0.57;;;0.57;;
22017;SDS011;11173;51.050;7.108;2022-08-25T09:37:16;0.90;;;0.70;;
22017;SDS011;11173;51.050;7.108;2022-08-25T09:42:18;0.30;;;0.30;;
22017;SDS011;11173;51.050;7.108;2022-08-25T09:47:21;0.63;;;0.47;;
22017;SDS011;11173;51.050;7.108;2022-08-25T10:02:43;0.50;;;0.50;;
22017;SDS011;11173;51.050;7.108;2022-08-25T10:13:36;1.20;;;0.55;;
22017;SDS011;11173;51.050;7.108;2022-08-25T10:18:39;0.55;;;0.55;;
22017;SDS011;11173;51.050;7.108;2022-08-25T10:23:47;0.63;;;0.63;;
22017;SDS011;11173;51.050;7.108;2022-08-25T10:28:54;0.45;;;0.45;;
22017;SDS011;11173;51.050;7.108;2022-08-25T10:39:43;0.40;;;0.40;;
22017;SDS011;11173;51.050;7.108;2022-08-25T10:45:09;0.32;;;0.32;;
22017;SDS011;11173;51.050;7.108;2022-08-25T11:06:57;0.57;;;0.57;;
22017;SDS011;11173;51.050;7.108;2022-08-25T11:11:51;0.80;;;0.60;;
22017;SDS011;11173;51.050;7.108;2022-08-25T11:16:57;0.40;;;0.40;;
22017;SDS011;11173;51.050;7.108;2022-08-25T11:27:12;0.98;;;0.73;;
22017;SDS011;11173;51.050;7.108;2022-08-25T11:32:17;0.95;;;0.95;;
22017;SDS011;11173;51.050;7.108;2022-08-25T11:37:22;0.50;;;0.50;;
22017;SDS011;11173;51.050;7.108;2022-08-25T11:48:07;0.65;;;0.65;;
22017;SDS011;11173;51.050;7.108;2022-08-25T11:53:27;0.38;;;0.38;;
22017;SDS011;11173;51.050;7.108;2022-08-25T12:14:07;0.35;;;0.32;;
22017;SDS011;11173;51.050;7.108;2022-08-25T12:19:22;1.17;;;1.17;;
22017;SDS011;11173;51.050;7.108;2022-08-25T12:29:42;0.60;;;0.60;;
22017;SDS011;11173;51.050;7.108;2022-08-25T12:34:53;3.38;;;0.50;;
22017;SDS011;11173;51.050;7.108;2022-08-25T12:40:12;0.50;;;0.50;;
22017;SDS011;11173;51.050;7.108;2022-08-25T12:45:52;0.52;;;0.52;;
22017;SDS011;11173;51.050;7.108;2022-08-25T12:51:07;0.60;;;0.60;;
22017;SDS011;11173;51.050;7.108;2022-08-25T13:01:48;0.90;;;0.90;;
22017;SDS011;11173;51.050;7.108;2022-08-25T13:07:01;0.63;;;0.63;;
22017;SDS011;11173;51.050;7.108;2022-08-25T13:17:42;1.02;;;0.90;;
22017;SDS011;11173;51.050;7.108;2022-08-25T13:22:44;1.00;;;1.00;;
22017;SDS011;11173;51.050;7.108;2022-08-25T13:27:52;0.70;;;0.70;;
22017;SDS011;11173;51.050;7.108;2022-08-25T13:32:56;0.52;;;0.52;;
22017;SDS011;11173;51.050;7.108;2022-08-25T13:38:10;0.70;;;0.70;;
22017;SDS011;11173;51.050;7.108;2022-08-25T13:43:12;1.00;;;1.00;;
22017;SDS011;11173;51.050;7.108;2022-08-25T13:48:14;1.02;;;1.00;;
22017;SDS011;11173;51.050;7.108;2022-08-25T13:53:40;0.50;;;0.50;;
22017;SDS011;11173;51.050;7.108;2022-08-25T13:58:47;0.60;;;0.60;;
22017;SDS011;11173;51.050;7.108;2022-08-25T14:03:48;0.60;;;0.60;;
22017;SDS011;11173;51.050;7.108;2022-08-25T14:14:05;0.68;;;0.68;;
22017;SDS011;11173;51.050;7.108;2022-08-25T14:19:11;0.82;;;0.82;;
22017;SDS011;11173;51.050;7.108;2022-08-25T14:24:18;0.77;;;0.77;;
22017;SDS011;11173;51.050;7.108;2022-08-25T14:29:21;1.40;;;1.30;;
22017;SDS011;11173;51.050;7.108;2022-08-25T14:34:27;0.68;;;0.68;;
22017;SDS011;11173;51.050;7.108;2022-08-25T14:39:31;0.40;;;0.40;;
22017;SDS011;11173;51.050;7.108;2022-08-25T14:44:32;0.50;;;0.50;;
22017;SDS011;11173;51.050;7.108;2022-08-25T14:49:34;0.38;;;0.38;;
22017;SDS011;11173;51.050;7.108;2022-08-25T14:54:37;0.40;;;0.40;;
22017;SDS011;11173;51.050;7.108;2022-08-25T14:59:38;1.20;;;0.70;;
22017;SDS011;11173;51.050;7.108;2022-08-25T15:04:38;0.50;;;0.50;;
22017;SDS011;11173;51.050;7.108;2022-08-25T15:09:39;4.18;;;1.08;;
22017;SDS011;11173;51.050;7.108;2022-08-25T15:14:39;2.67;;;0.83;;
22017;SDS011;11173;51.050;7.108;2022-08-25T15:19:39;0.43;;;0.43;;
22017;SDS011;11173;51.050;7.108;2022-08-25T15:24:40;0.43;;;0.43;;
22017;SDS011;11173;51.050;7.108;2022-08-25T15:29:41;0.73;;;0.60;;
22017;SDS011;11173;51.050;7.108;2022-08-25T15:34:41;0.50;;;0.50;;
22017;SDS011;11173;51.050;7.108;2022-08-25T15:39:42;0.22;;;0.22;;
22017;SDS011;11173;51.050;7.108;2022-08-25T15:44:44;0.30;;;0.30;;
22017;SDS011;11173;51.050;7.108;2022-08-25T15:49:44;0.20;;;0.20;;
22017;SDS011;11173;51.050;7.108;2022-08-25T15:54:45;0.32;;;0.32;;
22017;SDS011;11173;51.050;7.108;2022-08-25T15:59:45;0.40;;;0.40;;
22017;SDS011;11173;51.050;7.108;2022-08-25T16:04:46;0.40;;;0.40;;
22017;SDS011;11173;51.050;7.108;2022-08-25T16:09:47;0.60;;;0.60;;
22017;SDS011;11173;51.050;7.108;2022-08-25T16:14:48;1.35;;;0.50;;
22017;SDS011;11173;51.050;7.108;2022-08-25T16:19:48;0.40;;;0.40;;
22017;SDS011;11173;51.050;7.108;2022-08-25T16:24:49;0.43;;;0.37;;
22017;SDS011;11173;51.050;7.108;2022-08-25T16:29:50;0.40;;;0.40;;
22017;SDS011;11173;51.050;7.108;2022-08-25T16:34:51;0.20;;;0.20;;
22017;SDS011;11173;51.050;7.108;2022-08-25T16:39:52;0.50;;;0.50;;
22017;SDS011;11173;51.050;7.108;2022-08-25T16:44:53;0.57;;;0.50;;
22017;SDS011;11173;51.050;7.108;2022-08-25T16:49:54;0.40;;;0.40;;
22017;SDS011;11173;51.050;7.108;2022-08-25T16:54:54;0.20;;;0.20;;
22017;SDS011;11173;51.050;7.108;2022-08-25T17:00:17;0.30;;;0.30;;
22017;SDS011;11173;51.050;7.108;2022-08-25T17:05:21;0.17;;;0.17;;
22017;SDS011;11173;51.050;7.108;2022-08-25T17:10:21;0.28;;;0.20;;
22017;SDS011;11173;51.050;7.108;2022-08-25T17:15:22;0.15;;;0.15;;
22017;SDS011;11173;51.050;7.108;2022-08-25T17:20:26;0.30;;;0.30;;
22017;SDS011;11173;51.050;7.108;2022-08-25T17:25:26;0.55;;;0.20;;
22017;SDS011;11173;51.050;7.108;2022-08-25T17:30:27;0.15;;;0.10;;
22017;SDS011;11173;51.050;7.108;2022-08-25T17:35:28;0.10;;;0.10;;
22017;SDS011;11173;51.050;7.108;2022-08-25T17:40:28;0.10;;;0.10;;
22017;SDS011;11173;51.050;7.108;2022-08-25T17:45:29;0.10;;;0.07;;
22017;SDS011;11173;51.050;7.108;2022-08-25T17:50:29;0.13;;;0.13;;
22017;SDS011;11173;51.050;7.108;2022-08-25T17:55:30;0.10;;;0.10;;
22017;SDS011;11173;51.050;7.108;2022-08-25T18:00:31;0.00;;;0.00;;
22017;SDS011;11173;51.050;7.108;2022-08-25T18:05:35;0.10;;;0.10;;
22017;SDS011;11173;51.050;7.108;2022-08-25T18:10:37;0.10;;;0.10;;
22017;SDS011;11173;51.050;7.108;2022-08-25T18:15:38;0.10;;;0.10;;
22017;SDS011;11173;51.050;7.108;2022-08-25T18:20:42;0.15;;;0.15;;
22017;SDS011;11173;51.050;7.108;2022-08-25T18:25:44;0.13;;;0.08;;
22017;SDS011;11173;51.050;7.108;2022-08-25T18:30:46;0.10;;;0.10;;
22017;SDS011;11173;51.050;7.108;2022-08-25T18:35:47;0.10;;;0.10;;
22017;SDS011;11173;51.050;7.108;2022-08-25T18:40:47;0.20;;;0.20;;
22017;SDS011;11173;51.050;7.108;2022-08-25T18:45:54;1.95;;;0.60;;
22017;SDS011;11173;51.050;7.108;2022-08-25T18:50:55;0.50;;;0.50;;
22017;SDS011;11173;51.050;7.108;2022-08-25T18:55:56;0.50;;;0.50;;
22017;SDS011;11173;51.050;7.108;2022-08-25T19:00:57;0.63;;;0.63;;
22017;SDS011;11173;51.050;7.108;2022-08-25T19:05:57;0.80;;;0.80;;
22017;SDS011;11173;51.050;7.108;2022-08-25T19:10:59;0.52;;;0.52;;
22017;SDS011;11173;51.050;7.108;2022-08-25T19:16:06;1.17;;;0.70;;
22017;SDS011;11173;51.050;7.108;2022-08-25T19:21:08;0.60;;;0.60;;
22017;SDS011;11173;51.050;7.108;2022-08-25T19:26:09;0.88;;;0.80;;
22017;SDS011;11173;51.050;7.108;2022-08-25T19:31:10;0.80;;;0.80;;
22017;SDS011;11173;51.050;7.108;2022-08-25T19:36:11;1.00;;;1.00;;
22017;SDS011;11173;51.050;7.108;2022-08-25T19:41:12;0.80;;;0.80;;
22017;SDS011;11173;51.050;7.108;2022-08-25T19:46:13;1.58;;;1.20;;
22017;SDS011;11173;51.050;7.108;2022-08-25T19:51:14;1.20;;;1.10;;
22017;SDS011;11173;51.050;7.108;2022-08-25T19:56:15;1.30;;;1.20;;
22017;SDS011;11173;51.050;7.108;2022-08-25T20:01:15;1.48;;;1.38;;
22017;SDS011;11173;51.050;7.108;2022-08-25T20:06:15;1.58;;;1.33;;
22017;SDS011;11173;51.050;7.108;2022-08-25T20:11:16;1.60;;;1.50;;
22017;SDS011;11173;51.050;7.108;2022-08-25T20:16:16;1.75;;;1.65;;
22017;SDS011;11173;51.050;7.108;2022-08-25T20:21:17;1.00;;;1.00;;
22017;SDS011;11173;51.050;7.108;2022-08-25T20:26:17;1.93;;;1.60;;
22017;SDS011;11173;51.050;7.108;2022-08-25T20:31:18;1.50;;;1.40;;
22017;SDS011;11173;51.050;7.108;2022-08-25T20:36:18;2.42;;;1.40;;
22017;SDS011;11173;51.050;7.108;2022-08-25T20:41:19;1.30;;;1.20;;
22017;SDS011;11173;51.050;7.108;2022-08-25T20:46:19;1.85;;;1.35;;
22017;SDS011;11173;51.050;7.108;2022-08-25T20:51:19;1.70;;;1.60;;
22017;SDS011;11173;51.050;7.108;2022-08-25T20:56:21;1.48;;;1.38;;
22017;SDS011;11173;51.050;7.108;2022-08-25T21:01:24;1.55;;;1.45;;
22017;SDS011;11173;51.050;7.108;2022-08-25T21:06:47;2.28;;;2.17;;
22017;SDS011;11173;51.050;7.108;2022-08-25T21:11:49;1.85;;;1.75;;
22017;SDS011;11173;51.050;7.108;2022-08-25T21:16:52;2.40;;;2.20;;
22017;SDS011;11173;51.050;7.108;2022-08-25T21:21:53;2.28;;;2.13;;
22017;SDS011;11173;51.050;7.108;2022-08-25T21:26:55;2.65;;;1.80;;
22017;SDS011;11173;51.050;7.108;2022-08-25T21:31:56;1.90;;;1.80;;
22017;SDS011;11173;51.050;7.108;2022-08-25T21:36:58;2.15;;;1.70;;
22017;SDS011;11173;51.050;7.108;2022-08-25T21:41:58;3.60;;;2.10;;
22017;SDS011;11173;51.050;7.108;2022-08-25T21:46:59;2.03;;;1.80;;
22017;SDS011;11173;51.050;7.108;2022-08-25T21:52:00;2.58;;;2.13;;
22017;SDS011;11173;51.050;7.108;2022-08-25T21:57:03;1.73;;;1.63;;
22017;SDS011;11173;51.050;7.108;2022-08-25T22:02:06;1.88;;;1.77;;
22017;SDS011;11173;51.050;7.108;2022-08-25T22:07:09;1.73;;;1.58;;
22017;SDS011;11173;51.050;7.108;2022-08-25T22:12:10;2.38;;;2.25;;
22017;SDS011;11173;51.050;7.108;2022-08-25T22:17:10;2.07;;;1.97;;
22017;SDS011;11173;51.050;7.108;2022-08-25T22:22:11;2.40;;;2.20;;
22017;SDS011;11173;51.050;7.108;2022-08-25T22:27:11;2.28;;;2.08;;
22017;SDS011;11173;51.050;7.108;2022-08-25T22:32:16;1.88;;;1.77;;
22017;SDS011;11173;51.050;7.108;2022-08-25T22:37:16;2.10;;;2.00;;
22017;SDS011;11173;51.050;7.108;2022-08-25T22:42:17;2.22;;;2.13;;
22017;SDS011;11173;51.050;7.108;2022-08-25T22:47:18;1.90;;;1.80;;
22017;SDS011;11173;51.050;7.108;2022-08-25T22:52:18;2.03;;;1.92;;
22017;SDS011;11173;51.050;7.108;2022-08-25T22:57:19;2.00;;;1.90;;
22017;SDS011;11173;51.050;7.108;2022-08-25T23:02:19;1.85;;;1.75;;
22017;SDS011;11173;51.050;7.108;2022-08-25T23:07:20;1.55;;;1.45;;
22017;SDS011;11173;51.050;7.108;2022-08-25T23:12:21;3.25;;;1.92;;
22017;SDS011;11173;51.050;7.108;2022-08-25T23:17:22;1.75;;;1.65;;
22017;SDS011;11173;51.050;7.108;2022-08-25T23:22:23;1.80;;;1.70;;
22017;SDS011;11173;51.050;7.108;2022-08-25T23:27:24;1.30;;;1.20;;
22017;SDS011;11173;51.050;7.108;2022-08-25T23:32:25;1.77;;;1.67;;
22017;SDS011;11173;51.050;7.108;2022-08-25T23:37:25;2.15;;;1.30;;
22017;SDS011;11173;51.050;7.108;2022-08-25T23:42:26;1.42;;;1.33;;
22017;SDS011;11173;51.050;7.108;2022-08-25T23:47:26;1.92;;;1.20;;
22017;SDS011;11173;51.050;7.108;2022-08-25T23:52:27;1.00;;;1.00;;
22017;SDS011;11173;51.050;7.108;2022-08-25T23:57:28;0.70;;;0.70;;
